sensor_id;sensor_type;location;lat;lon;timestamp;pressure;altitude;pressure_sealevel;temperature;humidity
64298;BME280;50639;53.270;7.956;2023-08-06T00:01:26;100580.34;;;15.20;80.45
64298;BME280;50639;53.270;7.956;2023-08-06T00:03:51;100567.25;;;15.18;80.68
64298;BME280;50639;53.270;7.956;2023-08-06T00:06:17;100562.44;;;15.14;80.71
64298;BME280;50639;53.270;7.956;2023-08-06T00:08:42;100576.53;;;15.14;81.03
64298;BME280;50639;53.270;7.956;2023-08-06T00:11:08;100574.53;;;15.16;80.79
64298;BME280;50639;53.270;7.956;2023-08-06T00:13:33;100567.41;;;15.17;80.51
64298;BME280;50639;53.270;7.956;2023-08-06T00:16:09;100567.41;;;15.17;80.49
64298;BME280;50639;53.270;7.956;2023-08-06T00:18:35;100569.41;;;15.15;80.83
64298;BME280;50639;53.270;7.956;2023-08-06T00:21:00;100567.09;;;15.12;80.48
64298;BME280;50639;53.270;7.956;2023-08-06T00:23:26;100572.38;;;15.12;80.91
64298;BME280;50639;53.270;7.956;2023-08-06T00:25:51;100569.06;;;15.10;80.86
64298;BME280;50639;53.270;7.956;2023-08-06T00:28:17;100564.94;;;15.07;80.86
64298;BME280;50639;53.270;7.956;2023-08-06T00:30:42;100560.25;;;15.01;81.45
64298;BME280;50639;53.270;7.956;2023-08-06T00:33:07;100563.88;;;14.92;81.33
64298;BME280;50639;53.270;7.956;2023-08-06T00:35:33;100567.53;;;14.99;81.16
64298;BME280;50639;53.270;7.956;2023-08-06T00:37:58;100568.03;;;15.03;81.40
64298;BME280;50639;53.270;7.956;2023-08-06T00:40:23;100563.56;;;15.03;80.91
64298;BME280;50639;53.270;7.956;2023-08-06T00:42:49;100560.63;;;15.06;80.79
64298;BME280;50639;53.270;7.956;2023-08-06T00:45:14;100569.06;;;15.10;80.94
64298;BME280;50639;53.270;7.956;2023-08-06T00:47:40;100567.41;;;15.09;81.67
64298;BME280;50639;53.270;7.956;2023-08-06T00:50:07;100570.56;;;15.12;81.34
64298;BME280;50639;53.270;7.956;2023-08-06T00:52:34;100559.78;;;15.14;80.85
64298;BME280;50639;53.270;7.956;2023-08-06T00:54:59;100557.47;;;15.11;81.66
64298;BME280;50639;53.270;7.956;2023-08-06T00:57:26;100562.59;;;15.12;81.46
64298;BME280;50639;53.270;7.956;2023-08-06T00:59:52;100560.47;;;15.16;81.44
64298;BME280;50639;53.270;7.956;2023-08-06T01:02:18;100557.63;;;15.17;81.29
64298;BME280;50639;53.270;7.956;2023-08-06T01:04:44;100559.31;;;15.18;81.29
64298;BME280;50639;53.270;7.956;2023-08-06T01:07:21;100565.94;;;15.14;80.98
64298;BME280;50639;53.270;7.956;2023-08-06T01:12:45;100559.13;;;15.04;81.03
64298;BME280;50639;53.270;7.956;2023-08-06T01:15:18;100553.78;;;14.96;81.83
64298;BME280;50639;53.270;7.956;2023-08-06T01:17:46;100557.75;;;15.00;80.92
64298;BME280;50639;53.270;7.956;2023-08-06T01:20:12;100542.34;;;15.03;81.06
64298;BME280;50639;53.270;7.956;2023-08-06T01:22:38;100546.00;;;15.02;80.65
64298;BME280;50639;53.270;7.956;2023-08-06T01:25:03;100539.03;;;15.01;80.78
64298;BME280;50639;53.270;7.956;2023-08-06T01:27:38;100538.06;;;15.02;80.94
64298;BME280;50639;53.270;7.956;2023-08-06T01:30:20;100533.56;;;14.95;81.18
64298;BME280;50639;53.270;7.956;2023-08-06T01:32:49;100540.03;;;14.92;81.00
64298;BME280;50639;53.270;7.956;2023-08-06T01:35:18;100539.88;;;14.94;81.21
64298;BME280;50639;53.270;7.956;2023-08-06T01:37:45;100536.88;;;14.97;81.15
64298;BME280;50639;53.270;7.956;2023-08-06T01:40:11;100532.41;;;14.97;80.99
64298;BME280;50639;53.270;7.956;2023-08-06T01:42:37;100530.25;;;15.01;81.16
64298;BME280;50639;53.270;7.956;2023-08-06T01:45:04;100533.75;;;15.01;81.35
64298;BME280;50639;53.270;7.956;2023-08-06T01:47:30;100526.63;;;15.02;81.54
64298;BME280;50639;53.270;7.956;2023-08-06T01:49:55;100519.66;;;15.01;81.57
64298;BME280;50639;53.270;7.956;2023-08-06T01:52:21;100517.66;;;15.03;81.41
64298;BME280;50639;53.270;7.956;2023-08-06T01:54:46;100519.03;;;15.07;81.37
64298;BME280;50639;53.270;7.956;2023-08-06T01:57:12;100516.03;;;15.10;80.93
64298;BME280;50639;53.270;7.956;2023-08-06T01:59:37;100519.34;;;15.12;81.43
64298;BME280;50639;53.270;7.956;2023-08-06T02:02:03;100520.03;;;15.14;80.94
64298;BME280;50639;53.270;7.956;2023-08-06T02:04:28;100513.88;;;15.13;81.19
64298;BME280;50639;53.270;7.956;2023-08-06T02:06:54;100520.84;;;15.14;80.59
64298;BME280;50639;53.270;7.956;2023-08-06T02:09:19;100517.38;;;15.14;81.05
64298;BME280;50639;53.270;7.956;2023-08-06T02:11:44;100520.19;;;15.12;81.38
64298;BME280;50639;53.270;7.956;2023-08-06T02:14:10;100520.84;;;15.14;80.99
64298;BME280;50639;53.270;7.956;2023-08-06T02:16:35;100526.31;;;15.13;81.61
64298;BME280;50639;53.270;7.956;2023-08-06T02:19:01;100520.19;;;15.12;81.01
64298;BME280;50639;53.270;7.956;2023-08-06T02:21:27;100520.03;;;15.14;81.24
64298;BME280;50639;53.270;7.956;2023-08-06T02:23:53;100515.72;;;15.13;81.11
64298;BME280;50639;53.270;7.956;2023-08-06T02:26:18;100514.88;;;15.12;81.48
64298;BME280;50639;53.270;7.956;2023-08-06T02:28:44;100510.56;;;15.11;80.92
64298;BME280;50639;53.270;7.956;2023-08-06T02:31:11;100504.94;;;15.06;81.20
64298;BME280;50639;53.270;7.956;2023-08-06T02:33:37;100504.28;;;15.04;81.75
64298;BME280;50639;53.270;7.956;2023-08-06T02:36:03;100508.75;;;15.04;81.60
64298;BME280;50639;53.270;7.956;2023-08-06T02:38:29;100503.59;;;15.02;82.01
64298;BME280;50639;53.270;7.956;2023-08-06T02:40:56;100502.44;;;15.05;81.85
64298;BME280;50639;53.270;7.956;2023-08-06T02:43:22;100503.28;;;15.05;81.52
64298;BME280;50639;53.270;7.956;2023-08-06T02:45:48;100495.50;;;15.04;81.13
64298;BME280;50639;53.270;7.956;2023-08-06T02:48:14;100498.44;;;15.01;81.71
64298;BME280;50639;53.270;7.956;2023-08-06T02:50:41;100494.97;;;15.00;81.83
64298;BME280;50639;53.270;7.956;2023-08-06T02:53:07;100490.31;;;15.02;81.78
64298;BME280;50639;53.270;7.956;2023-08-06T02:55:33;100495.78;;;15.01;81.75
64298;BME280;50639;53.270;7.956;2023-08-06T02:58:00;100482.88;;;14.98;81.61
64298;BME280;50639;53.270;7.956;2023-08-06T03:00:28;100480.22;;;14.98;81.71
64298;BME280;50639;53.270;7.956;2023-08-06T03:02:54;100483.88;;;14.97;81.61
64298;BME280;50639;53.270;7.956;2023-08-06T03:05:27;100489.16;;;14.97;81.60
64298;BME280;50639;53.270;7.956;2023-08-06T03:07:52;100490.31;;;14.94;82.08
64298;BME280;50639;53.270;7.956;2023-08-06T03:10:24;100482.03;;;14.97;81.97
64298;BME280;50639;53.270;7.956;2023-08-06T03:12:52;100482.22;;;14.96;82.03
64298;BME280;50639;53.270;7.956;2023-08-06T03:15:19;100473.44;;;14.95;81.65
64298;BME280;50639;53.270;7.956;2023-08-06T03:17:45;100464.16;;;14.91;81.70
64298;BME280;50639;53.270;7.956;2023-08-06T03:20:11;100459.84;;;14.90;82.18
64298;BME280;50639;53.270;7.956;2023-08-06T03:22:37;100460.34;;;14.85;82.55
64298;BME280;50639;53.270;7.956;2023-08-06T03:25:03;100454.22;;;14.85;82.59
64298;BME280;50639;53.270;7.956;2023-08-06T03:27:29;100444.78;;;14.82;82.05
64298;BME280;50639;53.270;7.956;2023-08-06T03:29:55;100456.19;;;14.83;82.09
64298;BME280;50639;53.270;7.956;2023-08-06T03:32:22;100452.06;;;14.80;82.30
64298;BME280;50639;53.270;7.956;2023-08-06T03:34:48;100454.53;;;14.82;82.82
64298;BME280;50639;53.270;7.956;2023-08-06T03:37:15;100453.88;;;14.80;82.25
64298;BME280;50639;53.270;7.956;2023-08-06T03:39:40;100449.06;;;14.83;82.28
64298;BME280;50639;53.270;7.956;2023-08-06T03:42:06;100440.97;;;14.85;82.18
64298;BME280;50639;53.270;7.956;2023-08-06T03:44:31;100437.31;;;14.86;82.34
64298;BME280;50639;53.270;7.956;2023-08-06T03:46:57;100437.66;;;14.83;82.59
64298;BME280;50639;53.270;7.956;2023-08-06T03:49:22;100442.94;;;14.83;82.76
64298;BME280;50639;53.270;7.956;2023-08-06T03:51:47;100441.13;;;14.83;82.54
64298;BME280;50639;53.270;7.956;2023-08-06T03:54:13;100434.66;;;14.86;82.68
64298;BME280;50639;53.270;7.956;2023-08-06T03:56:38;100439.13;;;14.85;82.42
64298;BME280;50639;53.270;7.956;2023-08-06T03:59:04;100439.31;;;14.84;82.17
64298;BME280;50639;53.270;7.956;2023-08-06T04:01:29;100438.66;;;14.82;82.64
64298;BME280;50639;53.270;7.956;2023-08-06T04:03:55;100445.94;;;14.80;82.39
64298;BME280;50639;53.270;7.956;2023-08-06T04:06:21;100433.84;;;14.77;82.29
64298;BME280;50639;53.270;7.956;2023-08-06T04:08:46;100440.31;;;14.75;82.05
64298;BME280;50639;53.270;7.956;2023-08-06T04:11:11;100443.91;;;14.74;82.73
64298;BME280;50639;53.270;7.956;2023-08-06T04:13:43;100446.44;;;14.75;82.75
64298;BME280;50639;53.270;7.956;2023-08-06T04:16:09;100442.09;;;14.74;82.42
64298;BME280;50639;53.270;7.956;2023-08-06T04:18:35;100431.50;;;14.74;82.84
64298;BME280;50639;53.270;7.956;2023-08-06T04:21:01;100433.31;;;14.74;82.16
64298;BME280;50639;53.270;7.956;2023-08-06T04:23:27;100426.34;;;14.65;82.70
64298;BME280;50639;53.270;7.956;2023-08-06T04:25:57;100432.81;;;14.62;82.71
64298;BME280;50639;53.270;7.956;2023-08-06T04:28:25;100432.16;;;14.60;82.54
64298;BME280;50639;53.270;7.956;2023-08-06T04:30:50;100437.78;;;14.57;82.87
64298;BME280;50639;53.270;7.956;2023-08-06T04:33:16;100431.81;;;14.55;82.79
64298;BME280;50639;53.270;7.956;2023-08-06T04:35:44;100438.59;;;14.57;82.72
64298;BME280;50639;53.270;7.956;2023-08-06T04:38:09;100443.41;;;14.62;82.87
64298;BME280;50639;53.270;7.956;2023-08-06T04:40:35;100438.59;;;14.66;82.67
64298;BME280;50639;53.270;7.956;2023-08-06T04:43:01;100439.94;;;14.70;82.33
64298;BME280;50639;53.270;7.956;2023-08-06T04:45:30;100437.13;;;14.71;82.60
64298;BME280;50639;53.270;7.956;2023-08-06T04:47:55;100448.09;;;14.76;82.52
64298;BME280;50639;53.270;7.956;2023-08-06T04:50:21;100454.22;;;14.85;82.79
64298;BME280;50639;53.270;7.956;2023-08-06T04:52:46;100448.41;;;14.90;82.80
64298;BME280;50639;53.270;7.956;2023-08-06T04:55:11;100446.59;;;14.98;82.28
64298;BME280;50639;53.270;7.956;2023-08-06T04:57:37;100440.47;;;14.98;82.07
64298;BME280;50639;53.270;7.956;2023-08-06T05:00:03;100444.25;;;15.03;82.11
64298;BME280;50639;53.270;7.956;2023-08-06T05:02:29;100441.13;;;15.08;81.96
64298;BME280;50639;53.270;7.956;2023-08-06T05:04:58;100454.06;;;15.11;82.44
64298;BME280;50639;53.270;7.956;2023-08-06T05:07:23;100438.81;;;15.13;82.18
64298;BME280;50639;53.270;7.956;2023-08-06T05:09:49;100439.47;;;15.15;82.02
64298;BME280;50639;53.270;7.956;2023-08-06T05:12:14;100437.16;;;15.20;82.16
64298;BME280;50639;53.270;7.956;2023-08-06T05:14:40;100437.31;;;15.18;81.96
64298;BME280;50639;53.270;7.956;2023-08-06T05:17:05;100440.28;;;15.24;81.85
64298;BME280;50639;53.270;7.956;2023-08-06T05:19:31;100438.63;;;15.31;81.78
64298;BME280;50639;53.270;7.956;2023-08-06T05:21:57;100447.91;;;15.35;81.48
64298;BME280;50639;53.270;7.956;2023-08-06T05:24:22;100446.25;;;15.34;81.45
64298;BME280;50639;53.270;7.956;2023-08-06T05:26:47;100450.22;;;15.38;81.66
64298;BME280;50639;53.270;7.956;2023-08-06T05:29:13;100446.91;;;15.44;81.75
64298;BME280;50639;53.270;7.956;2023-08-06T05:31:38;100452.22;;;15.44;81.64
64298;BME280;50639;53.270;7.956;2023-08-06T05:34:04;100450.53;;;15.51;81.53
64298;BME280;50639;53.270;7.956;2023-08-06T05:36:29;100452.38;;;15.59;81.59
64298;BME280;50639;53.270;7.956;2023-08-06T05:38:55;100452.19;;;15.60;80.92
64298;BME280;50639;53.270;7.956;2023-08-06T05:41:20;100448.88;;;15.66;81.12
64298;BME280;50639;53.270;7.956;2023-08-06T05:43:46;100456.16;;;15.72;81.12
64298;BME280;50639;53.270;7.956;2023-08-06T05:46:11;100457.13;;;15.79;80.64
64298;BME280;50639;53.270;7.956;2023-08-06T05:48:36;100456.44;;;15.86;80.75
64298;BME280;50639;53.270;7.956;2023-08-06T05:51:02;100445.66;;;15.87;80.71
64298;BME280;50639;53.270;7.956;2023-08-06T05:53:27;100444.47;;;15.90;80.45
64298;BME280;50639;53.270;7.956;2023-08-06T05:55:53;100446.31;;;15.97;80.09
64298;BME280;50639;53.270;7.956;2023-08-06T05:58:18;100449.44;;;16.01;80.37
64298;BME280;50639;53.270;7.956;2023-08-06T06:00:45;100450.56;;;16.06;80.26
64298;BME280;50639;53.270;7.956;2023-08-06T06:03:11;100449.06;;;16.12;79.78
64298;BME280;50639;53.270;7.956;2023-08-06T06:05:39;100452.34;;;16.14;79.73
64298;BME280;50639;53.270;7.956;2023-08-06T06:08:05;100447.75;;;16.08;80.05
64298;BME280;50639;53.270;7.956;2023-08-06T06:10:30;100451.19;;;16.17;79.62
64298;BME280;50639;53.270;7.956;2023-08-06T06:12:56;100449.69;;;16.22;79.73
64298;BME280;50639;53.270;7.956;2023-08-06T06:15:21;100446.16;;;16.30;79.80
64298;BME280;50639;53.270;7.956;2023-08-06T06:17:47;100450.03;;;16.19;79.23
64298;BME280;50639;53.270;7.956;2023-08-06T06:20:12;100460.28;;;16.30;79.51
64298;BME280;50639;53.270;7.956;2023-08-06T06:22:37;100452.78;;;16.34;78.81
64298;BME280;50639;53.270;7.956;2023-08-06T06:25:03;100460.88;;;16.40;79.13
64298;BME280;50639;53.270;7.956;2023-08-06T06:27:29;100453.84;;;16.48;79.03
64298;BME280;50639;53.270;7.956;2023-08-06T06:29:54;100449.22;;;16.50;78.63
64298;BME280;50639;53.270;7.956;2023-08-06T06:32:20;100443.53;;;16.53;78.43
64298;BME280;50639;53.270;7.956;2023-08-06T06:34:46;100448.97;;;16.59;78.49
64298;BME280;50639;53.270;7.956;2023-08-06T06:37:11;100451.94;;;16.64;78.29
64298;BME280;50639;53.270;7.956;2023-08-06T06:39:36;100444.53;;;16.83;78.39
64298;BME280;50639;53.270;7.956;2023-08-06T06:42:02;100448.72;;;17.00;77.99
64298;BME280;50639;53.270;7.956;2023-08-06T06:44:35;100443.16;;;17.10;77.96
64298;BME280;50639;53.270;7.956;2023-08-06T06:47:01;100441.19;;;17.26;77.17
64298;BME280;50639;53.270;7.956;2023-08-06T06:49:26;100448.16;;;17.27;76.89
64298;BME280;50639;53.270;7.956;2023-08-06T06:51:51;100453.88;;;17.39;76.72
64298;BME280;50639;53.270;7.956;2023-08-06T06:54:17;100458.09;;;17.48;76.30
64298;BME280;50639;53.270;7.956;2023-08-06T06:56:42;100458.19;;;17.40;76.29
64298;BME280;50639;53.270;7.956;2023-08-06T06:59:07;100451.50;;;17.44;75.83
64298;BME280;50639;53.270;7.956;2023-08-06T07:01:33;100457.19;;;17.41;75.70
64298;BME280;50639;53.270;7.956;2023-08-06T07:03:58;100455.72;;;17.39;75.41
64298;BME280;50639;53.270;7.956;2023-08-06T07:06:24;100443.56;;;17.21;75.65
64298;BME280;50639;53.270;7.956;2023-08-06T07:08:49;100450.88;;;17.19;76.12
64298;BME280;50639;53.270;7.956;2023-08-06T07:11:15;100451.06;;;17.18;76.18
64298;BME280;50639;53.270;7.956;2023-08-06T07:13:40;100443.38;;;17.23;76.03
64298;BME280;50639;53.270;7.956;2023-08-06T07:16:05;100450.25;;;17.32;75.39
64298;BME280;50639;53.270;7.956;2023-08-06T07:18:31;100451.16;;;17.24;75.41
64298;BME280;50639;53.270;7.956;2023-08-06T07:20:56;100453.84;;;17.24;75.82
64298;BME280;50639;53.270;7.956;2023-08-06T07:23:23;100457.06;;;17.34;75.44
64298;BME280;50639;53.270;7.956;2023-08-06T07:25:50;100462.22;;;17.36;74.33
64298;BME280;50639;53.270;7.956;2023-08-06T07:28:15;100467.56;;;17.51;75.10
64298;BME280;50639;53.270;7.956;2023-08-06T07:30:42;100465.31;;;17.77;75.04
64298;BME280;50639;53.270;7.956;2023-08-06T07:33:08;100469.66;;;17.93;74.91
64298;BME280;50639;53.270;7.956;2023-08-06T07:35:35;100473.47;;;18.35;73.95
64298;BME280;50639;53.270;7.956;2023-08-06T07:38:01;100463.22;;;18.53;72.70
64298;BME280;50639;53.270;7.956;2023-08-06T07:40:27;100471.59;;;18.65;71.92
64298;BME280;50639;53.270;7.956;2023-08-06T07:42:53;100473.88;;;18.68;71.16
64298;BME280;50639;53.270;7.956;2023-08-06T07:45:18;100471.41;;;17.63;72.24
64298;BME280;50639;53.270;7.956;2023-08-06T07:47:43;100468.75;;;17.48;74.30
64298;BME280;50639;53.270;7.956;2023-08-06T07:50:09;100472.50;;;17.39;74.23
64298;BME280;50639;53.270;7.956;2023-08-06T07:52:35;100474.91;;;17.49;74.64
64298;BME280;50639;53.270;7.956;2023-08-06T07:55:00;100473.94;;;17.64;73.59
64298;BME280;50639;53.270;7.956;2023-08-06T07:57:32;100477.72;;;17.85;74.32
64298;BME280;50639;53.270;7.956;2023-08-06T07:59:59;100476.69;;;18.15;73.57
64298;BME280;50639;53.270;7.956;2023-08-06T08:02:25;100476.97;;;18.35;72.47
64298;BME280;50639;53.270;7.956;2023-08-06T08:04:50;100480.06;;;18.39;72.01
64298;BME280;50639;53.270;7.956;2023-08-06T08:07:15;100473.09;;;18.38;71.94
64298;BME280;50639;53.270;7.956;2023-08-06T08:09:41;100475.00;;;18.44;71.91
64298;BME280;50639;53.270;7.956;2023-08-06T08:12:07;100471.13;;;18.46;71.40
64298;BME280;50639;53.270;7.956;2023-08-06T08:14:32;100478.03;;;18.41;72.10
64298;BME280;50639;53.270;7.956;2023-08-06T08:17:01;100478.88;;;18.41;71.77
64298;BME280;50639;53.270;7.956;2023-08-06T08:19:28;100472.91;;;18.39;71.90
64298;BME280;50639;53.270;7.956;2023-08-06T08:21:53;100466.19;;;18.43;71.46
64298;BME280;50639;53.270;7.956;2023-08-06T08:24:20;100475.88;;;18.30;71.86
64298;BME280;50639;53.270;7.956;2023-08-06T08:26:45;100476.59;;;18.38;71.99
64298;BME280;50639;53.270;7.956;2023-08-06T08:29:11;100476.66;;;18.45;71.98
64298;BME280;50639;53.270;7.956;2023-08-06T08:31:36;100470.91;;;18.26;72.14
64298;BME280;50639;53.270;7.956;2023-08-06T08:34:05;100462.44;;;18.38;71.73
64298;BME280;50639;53.270;7.956;2023-08-06T08:36:31;100465.69;;;17.74;73.71
64298;BME280;50639;53.270;7.956;2023-08-06T08:38:56;100455.75;;;18.12;73.88
64298;BME280;50639;53.270;7.956;2023-08-06T08:41:22;100460.97;;;18.20;73.06
64298;BME280;50639;53.270;7.956;2023-08-06T08:43:50;100455.59;;;17.99;72.42
64298;BME280;50639;53.270;7.956;2023-08-06T08:46:18;100449.34;;;18.21;72.29
64298;BME280;50639;53.270;7.956;2023-08-06T08:48:43;100444.22;;;18.41;73.11
64298;BME280;50639;53.270;7.956;2023-08-06T08:51:10;100445.28;;;18.25;71.71
64298;BME280;50639;53.270;7.956;2023-08-06T08:53:36;100446.81;;;18.20;69.97
64298;BME280;50639;53.270;7.956;2023-08-06T08:56:04;100446.03;;;18.05;71.44
64298;BME280;50639;53.270;7.956;2023-08-06T08:58:30;100451.00;;;18.22;72.02
64298;BME280;50639;53.270;7.956;2023-08-06T09:00:58;100448.41;;;18.29;71.86
64298;BME280;50639;53.270;7.956;2023-08-06T09:03:51;100447.41;;;18.66;72.02
64298;BME280;50639;53.270;7.956;2023-08-06T09:06:18;100453.56;;;18.88;70.42
64298;BME280;50639;53.270;7.956;2023-08-06T09:08:58;100448.97;;;19.03;70.22
64298;BME280;50639;53.270;7.956;2023-08-06T09:11:25;100451.44;;;19.05;69.15
64298;BME280;50639;53.270;7.956;2023-08-06T09:13:53;100449.69;;;19.12;68.36
64298;BME280;50639;53.270;7.956;2023-08-06T09:16:19;100450.66;;;19.32;68.50
64298;BME280;50639;53.270;7.956;2023-08-06T09:18:44;100438.44;;;19.44;68.10
64298;BME280;50639;53.270;7.956;2023-08-06T09:21:14;100448.22;;;19.59;67.55
64298;BME280;50639;53.270;7.956;2023-08-06T09:23:40;100434.53;;;19.68;67.54
64298;BME280;50639;53.270;7.956;2023-08-06T09:26:06;100436.66;;;19.86;67.50
64298;BME280;50639;53.270;7.956;2023-08-06T09:28:39;100442.44;;;19.90;65.79
64298;BME280;50639;53.270;7.956;2023-08-06T09:31:06;100436.16;;;20.10;66.06
64298;BME280;50639;53.270;7.956;2023-08-06T09:33:32;100437.69;;;20.26;64.94
64298;BME280;50639;53.270;7.956;2023-08-06T09:36:06;100437.41;;;20.15;65.48
64298;BME280;50639;53.270;7.956;2023-08-06T09:38:37;100436.53;;;20.49;63.28
64298;BME280;50639;53.270;7.956;2023-08-06T09:41:04;100440.03;;;20.49;62.62
64298;BME280;50639;53.270;7.956;2023-08-06T09:43:29;100439.66;;;20.59;62.18
64298;BME280;50639;53.270;7.956;2023-08-06T09:45:55;100434.34;;;20.72;62.00
64298;BME280;50639;53.270;7.956;2023-08-06T09:48:24;100437.25;;;20.84;62.20
64298;BME280;50639;53.270;7.956;2023-08-06T09:50:50;100444.06;;;19.84;61.91
64298;BME280;50639;53.270;7.956;2023-08-06T09:53:18;100437.53;;;19.59;65.04
64298;BME280;50639;53.270;7.956;2023-08-06T09:55:45;100438.25;;;19.74;65.46
64298;BME280;50639;53.270;7.956;2023-08-06T09:58:11;100444.31;;;19.33;64.03
64298;BME280;50639;53.270;7.956;2023-08-06T10:00:37;100444.00;;;19.71;65.18
64298;BME280;50639;53.270;7.956;2023-08-06T10:03:02;100444.41;;;20.09;64.19
64298;BME280;50639;53.270;7.956;2023-08-06T10:05:29;100445.53;;;20.34;63.90
64298;BME280;50639;53.270;7.956;2023-08-06T10:07:57;100440.72;;;20.23;62.77
64298;BME280;50639;53.270;7.956;2023-08-06T10:10:22;100444.69;;;20.34;62.85
64298;BME280;50639;53.270;7.956;2023-08-06T10:12:50;100441.13;;;20.20;62.62
64298;BME280;50639;53.270;7.956;2023-08-06T10:15:21;100437.19;;;20.03;60.92
64298;BME280;50639;53.270;7.956;2023-08-06T10:17:50;100441.53;;;19.69;60.90
64298;BME280;50639;53.270;7.956;2023-08-06T10:20:16;100438.72;;;19.84;62.25
64298;BME280;50639;53.270;7.956;2023-08-06T10:22:44;100436.78;;;20.06;62.18
64298;BME280;50639;53.270;7.956;2023-08-06T10:25:10;100439.38;;;19.93;60.15
64298;BME280;50639;53.270;7.956;2023-08-06T10:27:40;100439.84;;;20.03;59.60
64298;BME280;50639;53.270;7.956;2023-08-06T10:30:25;100437.84;;;19.77;58.29
64298;BME280;50639;53.270;7.956;2023-08-06T10:32:53;100439.78;;;19.55;59.01
64298;BME280;50639;53.270;7.956;2023-08-06T10:35:41;100441.84;;;19.94;59.81
64298;BME280;50639;53.270;7.956;2023-08-06T10:45:54;100433.75;;;19.74;61.16
64298;BME280;50639;53.270;7.956;2023-08-06T10:50:55;100431.44;;;20.13;61.30
64298;BME280;50639;53.270;7.956;2023-08-06T10:53:21;100427.47;;;20.43;58.20
64298;BME280;50639;53.270;7.956;2023-08-06T10:55:46;100434.81;;;20.34;59.88
64298;BME280;50639;53.270;7.956;2023-08-06T10:58:15;100429.88;;;20.25;60.81
64298;BME280;50639;53.270;7.956;2023-08-06T11:00:41;100426.19;;;20.39;60.78
64298;BME280;50639;53.270;7.956;2023-08-06T11:03:08;100431.25;;;20.14;58.92
64298;BME280;50639;53.270;7.956;2023-08-06T11:05:34;100447.25;;;19.66;60.83
64298;BME280;50639;53.270;7.956;2023-08-06T11:07:59;100434.22;;;19.91;60.02
64298;BME280;50639;53.270;7.956;2023-08-06T11:10:25;100438.41;;;20.00;60.70
64298;BME280;50639;53.270;7.956;2023-08-06T11:12:51;100426.28;;;20.04;59.72
64298;BME280;50639;53.270;7.956;2023-08-06T11:15:16;100431.75;;;20.37;59.25
64298;BME280;50639;53.270;7.956;2023-08-06T11:17:41;100431.88;;;20.23;57.90
64298;BME280;50639;53.270;7.956;2023-08-06T11:20:08;100422.38;;;20.07;59.13
64298;BME280;50639;53.270;7.956;2023-08-06T11:22:35;100415.41;;;20.13;60.29
64298;BME280;50639;53.270;7.956;2023-08-06T11:25:01;100423.88;;;21.03;59.74
64298;BME280;50639;53.270;7.956;2023-08-06T11:27:27;100415.22;;;21.15;56.20
64298;BME280;50639;53.270;7.956;2023-08-06T11:29:53;100423.66;;;20.92;56.73
64298;BME280;50639;53.270;7.956;2023-08-06T11:32:18;100415.44;;;21.33;57.51
64298;BME280;50639;53.270;7.956;2023-08-06T11:34:44;100423.25;;;21.21;54.67
64298;BME280;50639;53.270;7.956;2023-08-06T11:37:09;100416.69;;;21.30;55.37
64298;BME280;50639;53.270;7.956;2023-08-06T11:39:37;100419.16;;;21.32;54.72
64298;BME280;50639;53.270;7.956;2023-08-06T11:42:04;100424.44;;;21.78;55.89
64298;BME280;50639;53.270;7.956;2023-08-06T11:44:31;100425.44;;;22.42;54.71
64298;BME280;50639;53.270;7.956;2023-08-06T11:47:00;100422.66;;;22.93;54.67
64298;BME280;50639;53.270;7.956;2023-08-06T11:52:14;100427.47;;;22.46;54.66
64298;BME280;50639;53.270;7.956;2023-08-06T11:54:40;100431.00;;;21.82;53.51
64298;BME280;50639;53.270;7.956;2023-08-06T11:57:06;100426.66;;;21.88;55.20
64298;BME280;50639;53.270;7.956;2023-08-06T11:59:32;100420.59;;;21.48;55.79
64298;BME280;50639;53.270;7.956;2023-08-06T12:01:59;100428.03;;;22.17;55.88
64298;BME280;50639;53.270;7.956;2023-08-06T12:04:25;100427.38;;;21.37;58.14
64298;BME280;50639;53.270;7.956;2023-08-06T12:06:50;100429.16;;;21.83;56.51
64298;BME280;50639;53.270;7.956;2023-08-06T12:09:16;100428.03;;;22.17;55.09
64298;BME280;50639;53.270;7.956;2023-08-06T12:11:41;100432.09;;;22.33;56.07
64298;BME280;50639;53.270;7.956;2023-08-06T12:14:06;100432.66;;;21.83;56.27
64298;BME280;50639;53.270;7.956;2023-08-06T12:16:32;100430.75;;;21.97;56.17
64298;BME280;50639;53.270;7.956;2023-08-06T12:18:57;100436.03;;;21.13;56.52
64298;BME280;50639;53.270;7.956;2023-08-06T12:21:23;100427.56;;;20.96;57.94
64298;BME280;50639;53.270;7.956;2023-08-06T12:23:48;100413.16;;;21.10;59.64
64298;BME280;50639;53.270;7.956;2023-08-06T12:26:14;100406.53;;;20.80;59.24
64298;BME280;50639;53.270;7.956;2023-08-06T12:28:39;100415.38;;;20.54;58.13
64298;BME280;50639;53.270;7.956;2023-08-06T12:31:04;100406.13;;;20.56;58.03
64298;BME280;50639;53.270;7.956;2023-08-06T12:33:30;100406.78;;;21.04;59.83
64298;BME280;50639;53.270;7.956;2023-08-06T12:35:55;100405.06;;;20.51;60.64
64298;BME280;50639;53.270;7.956;2023-08-06T12:38:22;100408.81;;;20.76;60.51
64298;BME280;50639;53.270;7.956;2023-08-06T12:40:47;100413.13;;;20.57;60.34
64298;BME280;50639;53.270;7.956;2023-08-06T12:43:13;100408.63;;;20.91;57.83
64298;BME280;50639;53.270;7.956;2023-08-06T12:45:38;100408.00;;;20.76;58.94
64298;BME280;50639;53.270;7.956;2023-08-06T12:48:04;100404.69;;;20.80;58.75
64298;BME280;50639;53.270;7.956;2023-08-06T12:50:29;100398.75;;;21.11;59.34
64298;BME280;50639;53.270;7.956;2023-08-06T12:52:55;100403.00;;;21.65;57.88
64298;BME280;50639;53.270;7.956;2023-08-06T12:55:20;100402.13;;;21.84;57.77
64298;BME280;50639;53.270;7.956;2023-08-06T12:57:45;100406.22;;;22.45;57.57
64298;BME280;50639;53.270;7.956;2023-08-06T13:00:11;100402.28;;;22.09;55.17
64298;BME280;50639;53.270;7.956;2023-08-06T13:02:36;100405.13;;;21.37;56.85